sensor_id;sensor_type;location;lat;lon;timestamp;temperature;humidity
7218;DHT22;3650;53.580;10.094;2022-11-20T00:01:46;4.50;80.70
7218;DHT22;3650;53.580;10.094;2022-11-20T00:04:13;4.50;80.70
7218;DHT22;3650;53.580;10.094;2022-11-20T00:06:39;4.50;80.90
7218;DHT22;3650;53.580;10.094;2022-11-20T00:09:13;4.50;81.10
7218;DHT22;3650;53.580;10.094;2022-11-20T00:11:42;4.50;80.90
7218;DHT22;3650;53.580;10.094;2022-11-20T00:14:09;4.50;80.70
7218;DHT22;3650;53.580;10.094;2022-11-20T00:16:36;4.50;80.70
7218;DHT22;3650;53.580;10.094;2022-11-20T00:19:04;4.50;80.90
7218;DHT22;3650;53.580;10.094;2022-11-20T00:21:34;4.50;81.60
7218;DHT22;3650;53.580;10.094;2022-11-20T00:24:01;4.50;81.50
7218;DHT22;3650;53.580;10.094;2022-11-20T00:26:28;4.50;81.10
7218;DHT22;3650;53.580;10.094;2022-11-20T00:28:56;4.50;81.00
7218;DHT22;3650;53.580;10.094;2022-11-20T00:31:30;4.50;81.50
7218;DHT22;3650;53.580;10.094;2022-11-20T00:33:58;4.50;81.30
7218;DHT22;3650;53.580;10.094;2022-11-20T00:36:28;4.50;81.60
7218;DHT22;3650;53.580;10.094;2022-11-20T00:38:58;4.50;81.40
7218;DHT22;3650;53.580;10.094;2022-11-20T00:41:26;4.50;81.20
7218;DHT22;3650;53.580;10.094;2022-11-20T00:43:54;4.50;81.50
7218;DHT22;3650;53.580;10.094;2022-11-20T00:46:22;4.50;81.50
7218;DHT22;3650;53.580;10.094;2022-11-20T00:48:50;4.50;81.50
7218;DHT22;3650;53.580;10.094;2022-11-20T00:51:17;4.50;82.10
7218;DHT22;3650;53.580;10.094;2022-11-20T00:53:46;4.50;82.70
7218;DHT22;3650;53.580;10.094;2022-11-20T00:56:14;4.40;82.50
7218;DHT22;3650;53.580;10.094;2022-11-20T00:58:44;4.50;82.90
7218;DHT22;3650;53.580;10.094;2022-11-20T01:01:13;4.50;82.60
7218;DHT22;3650;53.580;10.094;2022-11-20T01:03:41;4.40;82.60
7218;DHT22;3650;53.580;10.094;2022-11-20T01:06:12;4.40;82.70
7218;DHT22;3650;53.580;10.094;2022-11-20T01:08:39;4.40;82.80
7218;DHT22;3650;53.580;10.094;2022-11-20T01:11:13;4.40;82.90
7218;DHT22;3650;53.580;10.094;2022-11-20T01:13:40;4.40;82.70
7218;DHT22;3650;53.580;10.094;2022-11-20T01:16:09;4.40;83.10
7218;DHT22;3650;53.580;10.094;2022-11-20T01:18:36;4.40;83.90
7218;DHT22;3650;53.580;10.094;2022-11-20T01:21:05;4.40;84.30
7218;DHT22;3650;53.580;10.094;2022-11-20T01:23:33;4.40;84.00
7218;DHT22;3650;53.580;10.094;2022-11-20T01:26:11;4.40;84.40
7218;DHT22;3650;53.580;10.094;2022-11-20T01:28:39;4.40;84.50
7218;DHT22;3650;53.580;10.094;2022-11-20T01:31:16;4.40;84.70
7218;DHT22;3650;53.580;10.094;2022-11-20T01:33:45;4.40;84.90
7218;DHT22;3650;53.580;10.094;2022-11-20T01:36:14;4.50;85.30
7218;DHT22;3650;53.580;10.094;2022-11-20T01:38:43;4.50;85.00
7218;DHT22;3650;53.580;10.094;2022-11-20T01:41:13;4.50;84.60
7218;DHT22;3650;53.580;10.094;2022-11-20T01:44:02;4.40;84.50
7218;DHT22;3650;53.580;10.094;2022-11-20T01:46:31;4.40;85.00
7218;DHT22;3650;53.580;10.094;2022-11-20T01:49:01;4.40;85.40
7218;DHT22;3650;53.580;10.094;2022-11-20T01:51:32;4.40;85.50
7218;DHT22;3650;53.580;10.094;2022-11-20T01:54:00;4.40;86.10
7218;DHT22;3650;53.580;10.094;2022-11-20T01:56:32;4.40;86.50
7218;DHT22;3650;53.580;10.094;2022-11-20T01:59:02;4.40;86.50
7218;DHT22;3650;53.580;10.094;2022-11-20T02:01:30;4.40;87.00
7218;DHT22;3650;53.580;10.094;2022-11-20T02:03:58;4.40;87.00
7218;DHT22;3650;53.580;10.094;2022-11-20T02:06:27;4.40;86.90
7218;DHT22;3650;53.580;10.094;2022-11-20T02:08:55;4.40;87.40
7218;DHT22;3650;53.580;10.094;2022-11-20T02:11:22;4.40;88.40
7218;DHT22;3650;53.580;10.094;2022-11-20T02:13:53;4.40;89.30
7218;DHT22;3650;53.580;10.094;2022-11-20T02:16:21;4.40;89.40
7218;DHT22;3650;53.580;10.094;2022-11-20T02:18:50;4.30;89.30
7218;DHT22;3650;53.580;10.094;2022-11-20T02:21:35;4.40;89.70
7218;DHT22;3650;53.580;10.094;2022-11-20T02:24:07;4.40;90.00
7218;DHT22;3650;53.580;10.094;2022-11-20T02:26:39;4.40;90.20
7218;DHT22;3650;53.580;10.094;2022-11-20T02:29:08;4.40;90.10
7218;DHT22;3650;53.580;10.094;2022-11-20T02:31:37;4.40;90.00
7218;DHT22;3650;53.580;10.094;2022-11-20T02:34:12;4.40;90.10
7218;DHT22;3650;53.580;10.094;2022-11-20T02:36:41;4.40;90.10
7218;DHT22;3650;53.580;10.094;2022-11-20T02:39:11;4.40;90.10
7218;DHT22;3650;53.580;10.094;2022-11-20T02:41:42;4.40;89.90
7218;DHT22;3650;53.580;10.094;2022-11-20T02:44:09;4.40;89.90
7218;DHT22;3650;53.580;10.094;2022-11-20T02:46:35;4.30;89.40
7218;DHT22;3650;53.580;10.094;2022-11-20T02:49:02;4.30;90.00
7218;DHT22;3650;53.580;10.094;2022-11-20T02:51:30;4.30;90.00
7218;DHT22;3650;53.580;10.094;2022-11-20T02:53:57;4.30;89.80
7218;DHT22;3650;53.580;10.094;2022-11-20T02:56:31;4.30;90.00
7218;DHT22;3650;53.580;10.094;2022-11-20T02:58:58;4.40;90.10
7218;DHT22;3650;53.580;10.094;2022-11-20T03:01:25;4.30;89.90
7218;DHT22;3650;53.580;10.094;2022-11-20T03:03:52;4.30;89.60
7218;DHT22;3650;53.580;10.094;2022-11-20T03:06:20;4.30;90.00
7218;DHT22;3650;53.580;10.094;2022-11-20T03:08:47;4.30;90.20
7218;DHT22;3650;53.580;10.094;2022-11-20T03:11:21;4.30;90.20
7218;DHT22;3650;53.580;10.094;2022-11-20T03:13:49;4.30;90.20
7218;DHT22;3650;53.580;10.094;2022-11-20T03:16:18;4.30;90.40
7218;DHT22;3650;53.580;10.094;2022-11-20T03:18:45;4.30;90.60
7218;DHT22;3650;53.580;10.094;2022-11-20T03:21:13;4.30;90.40
7218;DHT22;3650;53.580;10.094;2022-11-20T03:23:40;4.30;90.20
7218;DHT22;3650;53.580;10.094;2022-11-20T03:26:09;4.30;90.20
7218;DHT22;3650;53.580;10.094;2022-11-20T03:28:36;4.30;90.20
7218;DHT22;3650;53.580;10.094;2022-11-20T03:31:09;4.30;90.10
7218;DHT22;3650;53.580;10.094;2022-11-20T03:33:42;4.30;90.10
7218;DHT22;3650;53.580;10.094;2022-11-20T03:36:11;4.30;90.20
7218;DHT22;3650;53.580;10.094;2022-11-20T03:38:38;4.30;90.10
7218;DHT22;3650;53.580;10.094;2022-11-20T03:41:07;4.30;90.10
7218;DHT22;3650;53.580;10.094;2022-11-20T03:43:34;4.30;90.20
7218;DHT22;3650;53.580;10.094;2022-11-20T03:46:01;4.30;90.20
7218;DHT22;3650;53.580;10.094;2022-11-20T03:48:36;4.30;90.30
7218;DHT22;3650;53.580;10.094;2022-11-20T03:51:10;4.30;90.50
7218;DHT22;3650;53.580;10.094;2022-11-20T03:53:37;4.30;90.60
7218;DHT22;3650;53.580;10.094;2022-11-20T03:56:05;4.30;90.50
7218;DHT22;3650;53.580;10.094;2022-11-20T03:58:32;4.30;90.40
7218;DHT22;3650;53.580;10.094;2022-11-20T04:01:04;4.30;90.50
7218;DHT22;3650;53.580;10.094;2022-11-20T04:03:31;4.30;90.50
7218;DHT22;3650;53.580;10.094;2022-11-20T04:06:03;4.40;90.50
7218;DHT22;3650;53.580;10.094;2022-11-20T04:08:30;4.30;90.40
7218;DHT22;3650;53.580;10.094;2022-11-20T04:11:07;4.40;90.10
7218;DHT22;3650;53.580;10.094;2022-11-20T04:13:33;4.40;90.00
7218;DHT22;3650;53.580;10.094;2022-11-20T04:16:00;4.30;89.30
7218;DHT22;3650;53.580;10.094;2022-11-20T04:18:27;4.40;88.90
7218;DHT22;3650;53.580;10.094;2022-11-20T04:20:53;4.30;88.90
7218;DHT22;3650;53.580;10.094;2022-11-20T04:23:23;4.30;89.10
7218;DHT22;3650;53.580;10.094;2022-11-20T04:25:53;4.30;89.40
7218;DHT22;3650;53.580;10.094;2022-11-20T04:28:20;4.30;89.50
7218;DHT22;3650;53.580;10.094;2022-11-20T04:30:52;4.30;89.50
7218;DHT22;3650;53.580;10.094;2022-11-20T04:33:19;4.30;89.90
7218;DHT22;3650;53.580;10.094;2022-11-20T04:35:46;4.30;89.60
7218;DHT22;3650;53.580;10.094;2022-11-20T04:38:14;4.30;89.60
7218;DHT22;3650;53.580;10.094;2022-11-20T04:40:42;4.30;89.50
7218;DHT22;3650;53.580;10.094;2022-11-20T04:43:08;4.30;89.20
7218;DHT22;3650;53.580;10.094;2022-11-20T04:45:35;4.30;89.50
7218;DHT22;3650;53.580;10.094;2022-11-20T04:48:02;4.30;89.60
7218;DHT22;3650;53.580;10.094;2022-11-20T04:50:29;4.30;90.00
7218;DHT22;3650;53.580;10.094;2022-11-20T04:52:56;4.30;90.10
7218;DHT22;3650;53.580;10.094;2022-11-20T04:55:22;4.30;90.10
7218;DHT22;3650;53.580;10.094;2022-11-20T04:57:53;4.30;90.00
7218;DHT22;3650;53.580;10.094;2022-11-20T05:00:20;4.30;90.00
7218;DHT22;3650;53.580;10.094;2022-11-20T05:02:47;4.30;90.00
7218;DHT22;3650;53.580;10.094;2022-11-20T05:05:14;4.20;90.10
7218;DHT22;3650;53.580;10.094;2022-11-20T05:07:42;4.20;90.10
7218;DHT22;3650;53.580;10.094;2022-11-20T05:10:09;4.20;90.10
7218;DHT22;3650;53.580;10.094;2022-11-20T05:12:38;4.30;90.20
7218;DHT22;3650;53.580;10.094;2022-11-20T05:15:07;4.20;90.30
7218;DHT22;3650;53.580;10.094;2022-11-20T05:17:33;4.20;90.60
7218;DHT22;3650;53.580;10.094;2022-11-20T05:20:00;4.20;90.60
7218;DHT22;3650;53.580;10.094;2022-11-20T05:22:28;4.30;90.50
7218;DHT22;3650;53.580;10.094;2022-11-20T05:24:55;4.20;90.30
7218;DHT22;3650;53.580;10.094;2022-11-20T05:27:21;4.20;90.30
7218;DHT22;3650;53.580;10.094;2022-11-20T05:29:48;4.20;90.20
7218;DHT22;3650;53.580;10.094;2022-11-20T05:32:16;4.20;90.20
7218;DHT22;3650;53.580;10.094;2022-11-20T05:34:43;4.30;90.30
7218;DHT22;3650;53.580;10.094;2022-11-20T05:37:10;4.30;90.20
7218;DHT22;3650;53.580;10.094;2022-11-20T05:39:36;4.20;90.40
7218;DHT22;3650;53.580;10.094;2022-11-20T05:42:03;4.30;90.60
7218;DHT22;3650;53.580;10.094;2022-11-20T05:44:50;4.30;90.60
7218;DHT22;3650;53.580;10.094;2022-11-20T05:47:18;4.30;90.60
7218;DHT22;3650;53.580;10.094;2022-11-20T05:49:55;4.30;90.40
7218;DHT22;3650;53.580;10.094;2022-11-20T05:52:21;4.30;90.60
7218;DHT22;3650;53.580;10.094;2022-11-20T05:54:56;4.30;90.60
7218;DHT22;3650;53.580;10.094;2022-11-20T05:57:24;4.30;90.60
7218;DHT22;3650;53.580;10.094;2022-11-20T05:59:51;4.40;90.60
7218;DHT22;3650;53.580;10.094;2022-11-20T06:02:21;4.30;90.60
7218;DHT22;3650;53.580;10.094;2022-11-20T06:04:47;4.40;90.60
7218;DHT22;3650;53.580;10.094;2022-11-20T06:07:14;4.40;90.50
7218;DHT22;3650;53.580;10.094;2022-11-20T06:09:42;4.40;90.40
7218;DHT22;3650;53.580;10.094;2022-11-20T06:12:09;4.40;90.20
7218;DHT22;3650;53.580;10.094;2022-11-20T06:14:35;4.40;90.30
7218;DHT22;3650;53.580;10.094;2022-11-20T06:17:02;4.40;90.20
7218;DHT22;3650;53.580;10.094;2022-11-20T06:19:30;4.40;90.20
7218;DHT22;3650;53.580;10.094;2022-11-20T06:21:57;4.40;90.30
7218;DHT22;3650;53.580;10.094;2022-11-20T06:24:24;4.40;90.50
7218;DHT22;3650;53.580;10.094;2022-11-20T06:26:52;4.40;90.60
7218;DHT22;3650;53.580;10.094;2022-11-20T06:29:18;4.40;90.60
7218;DHT22;3650;53.580;10.094;2022-11-20T06:31:45;4.40;90.50
7218;DHT22;3650;53.580;10.094;2022-11-20T06:34:13;4.40;90.40
7218;DHT22;3650;53.580;10.094;2022-11-20T06:36:41;4.40;90.30
7218;DHT22;3650;53.580;10.094;2022-11-20T06:39:09;4.40;90.10
7218;DHT22;3650;53.580;10.094;2022-11-20T06:41:35;4.40;90.00
7218;DHT22;3650;53.580;10.094;2022-11-20T06:44:03;4.40;90.00
7218;DHT22;3650;53.580;10.094;2022-11-20T06:46:30;4.40;90.10
7218;DHT22;3650;53.580;10.094;2022-11-20T06:48:57;4.40;90.00
7218;DHT22;3650;53.580;10.094;2022-11-20T06:51:28;4.40;90.00
7218;DHT22;3650;53.580;10.094;2022-11-20T06:53:56;4.40;90.10
7218;DHT22;3650;53.580;10.094;2022-11-20T06:56:23;4.40;90.20
7218;DHT22;3650;53.580;10.094;2022-11-20T06:58:50;4.40;90.00
7218;DHT22;3650;53.580;10.094;2022-11-20T07:01:17;4.30;90.00
7218;DHT22;3650;53.580;10.094;2022-11-20T07:03:43;4.30;90.00
7218;DHT22;3650;53.580;10.094;2022-11-20T07:06:16;4.40;90.00
7218;DHT22;3650;53.580;10.094;2022-11-20T07:08:43;4.20;90.00
7218;DHT22;3650;53.580;10.094;2022-11-20T07:11:12;4.20;90.20
7218;DHT22;3650;53.580;10.094;2022-11-20T07:13:39;4.20;90.40
7218;DHT22;3650;53.580;10.094;2022-11-20T07:16:13;4.20;90.40
7218;DHT22;3650;53.580;10.094;2022-11-20T07:18:39;4.20;90.30
7218;DHT22;3650;53.580;10.094;2022-11-20T07:21:10;4.20;90.30
7218;DHT22;3650;53.580;10.094;2022-11-20T07:23:37;4.10;90.20
7218;DHT22;3650;53.580;10.094;2022-11-20T07:26:16;4.10;90.40
7218;DHT22;3650;53.580;10.094;2022-11-20T07:28:44;4.10;90.30
7218;DHT22;3650;53.580;10.094;2022-11-20T07:31:11;4.10;90.30
7218;DHT22;3650;53.580;10.094;2022-11-20T07:33:38;4.10;90.60
7218;DHT22;3650;53.580;10.094;2022-11-20T07:36:07;4.10;90.60
7218;DHT22;3650;53.580;10.094;2022-11-20T07:38:33;4.10;90.60
7218;DHT22;3650;53.580;10.094;2022-11-20T07:41:01;4.10;90.60
7218;DHT22;3650;53.580;10.094;2022-11-20T07:43:30;4.00;90.50
7218;DHT22;3650;53.580;10.094;2022-11-20T07:45:57;4.00;90.50
7218;DHT22;3650;53.580;10.094;2022-11-20T07:48:27;4.00;90.50
7218;DHT22;3650;53.580;10.094;2022-11-20T07:50:54;4.10;90.60
7218;DHT22;3650;53.580;10.094;2022-11-20T07:53:21;4.00;90.60
7218;DHT22;3650;53.580;10.094;2022-11-20T07:55:48;4.00;90.60
7218;DHT22;3650;53.580;10.094;2022-11-20T07:58:30;4.00;90.50
7218;DHT22;3650;53.580;10.094;2022-11-20T08:01:01;4.00;90.60
7218;DHT22;3650;53.580;10.094;2022-11-20T08:03:30;4.00;90.60
7218;DHT22;3650;53.580;10.094;2022-11-20T08:05:58;4.00;90.70
7218;DHT22;3650;53.580;10.094;2022-11-20T08:08:33;4.00;90.80
7218;DHT22;3650;53.580;10.094;2022-11-20T08:10:59;4.00;90.60
7218;DHT22;3650;53.580;10.094;2022-11-20T08:13:44;4.00;90.50
7218;DHT22;3650;53.580;10.094;2022-11-20T08:16:28;4.00;90.50
7218;DHT22;3650;53.580;10.094;2022-11-20T08:19:09;4.00;90.60
7218;DHT22;3650;53.580;10.094;2022-11-20T08:21:35;4.00;90.50
7218;DHT22;3650;53.580;10.094;2022-11-20T08:24:05;4.00;90.50
7218;DHT22;3650;53.580;10.094;2022-11-20T08:26:32;4.00;90.60
7218;DHT22;3650;53.580;10.094;2022-11-20T08:29:00;4.00;90.60
7218;DHT22;3650;53.580;10.094;2022-11-20T08:31:27;4.10;90.60
7218;DHT22;3650;53.580;10.094;2022-11-20T08:33:57;4.10;90.60
7218;DHT22;3650;53.580;10.094;2022-11-20T08:36:24;4.10;90.40
7218;DHT22;3650;53.580;10.094;2022-11-20T08:38:55;4.10;90.50
7218;DHT22;3650;53.580;10.094;2022-11-20T08:41:22;4.10;90.50
7218;DHT22;3650;53.580;10.094;2022-11-20T08:43:55;4.10;90.50
7218;DHT22;3650;53.580;10.094;2022-11-20T08:46:24;4.10;90.20
7218;DHT22;3650;53.580;10.094;2022-11-20T08:48:51;4.20;90.30
7218;DHT22;3650;53.580;10.094;2022-11-20T08:51:20;4.20;90.10
7218;DHT22;3650;53.580;10.094;2022-11-20T08:53:47;4.20;90.30
7218;DHT22;3650;53.580;10.094;2022-11-20T08:56:16;4.20;90.30
7218;DHT22;3650;53.580;10.094;2022-11-20T08:58:43;4.20;90.30
7218;DHT22;3650;53.580;10.094;2022-11-20T09:01:17;4.20;90.30
7218;DHT22;3650;53.580;10.094;2022-11-20T09:03:45;4.20;90.40
7218;DHT22;3650;53.580;10.094;2022-11-20T09:06:14;4.20;90.60
7218;DHT22;3650;53.580;10.094;2022-11-20T09:08:41;4.20;90.60
7218;DHT22;3650;53.580;10.094;2022-11-20T09:11:09;4.20;90.60
7218;DHT22;3650;53.580;10.094;2022-11-20T09:13:36;4.30;90.50
7218;DHT22;3650;53.580;10.094;2022-11-20T09:16:05;4.20;90.40
7218;DHT22;3650;53.580;10.094;2022-11-20T09:18:33;4.20;90.60
7218;DHT22;3650;53.580;10.094;2022-11-20T09:21:05;4.30;91.00
7218;DHT22;3650;53.580;10.094;2022-11-20T09:23:33;4.30;90.60
7218;DHT22;3650;53.580;10.094;2022-11-20T09:26:02;4.30;90.80
7218;DHT22;3650;53.580;10.094;2022-11-20T09:28:29;4.30;91.20
7218;DHT22;3650;53.580;10.094;2022-11-20T09:30:56;4.30;90.90
7218;DHT22;3650;53.580;10.094;2022-11-20T09:33:25;4.30;90.90
7218;DHT22;3650;53.580;10.094;2022-11-20T09:35:52;4.20;91.00
7218;DHT22;3650;53.580;10.094;2022-11-20T09:38:24;4.20;91.00
7218;DHT22;3650;53.580;10.094;2022-11-20T09:40:55;4.10;90.90
7218;DHT22;3650;53.580;10.094;2022-11-20T09:43:32;4.20;91.20
7218;DHT22;3650;53.580;10.094;2022-11-20T09:46:09;4.20;91.10
7218;DHT22;3650;53.580;10.094;2022-11-20T09:48:56;4.20;91.10
7218;DHT22;3650;53.580;10.094;2022-11-20T09:51:37;4.20;91.30
7218;DHT22;3650;53.580;10.094;2022-11-20T09:54:15;4.20;91.60
7218;DHT22;3650;53.580;10.094;2022-11-20T09:56:46;4.20;91.80
7218;DHT22;3650;53.580;10.094;2022-11-20T09:59:28;4.20;91.80
7218;DHT22;3650;53.580;10.094;2022-11-20T10:01:59;4.20;91.90
7218;DHT22;3650;53.580;10.094;2022-11-20T10:04:30;4.30;92.00
7218;DHT22;3650;53.580;10.094;2022-11-20T10:07:03;4.20;92.10
7218;DHT22;3650;53.580;10.094;2022-11-20T10:09:35;4.20;91.90
7218;DHT22;3650;53.580;10.094;2022-11-20T10:12:11;4.30;91.90
7218;DHT22;3650;53.580;10.094;2022-11-20T10:14:51;4.30;91.90
7218;DHT22;3650;53.580;10.094;2022-11-20T10:17:31;4.30;91.80
7218;DHT22;3650;53.580;10.094;2022-11-20T10:20:14;4.30;91.70
7218;DHT22;3650;53.580;10.094;2022-11-20T10:22:56;4.30;91.80
7218;DHT22;3650;53.580;10.094;2022-11-20T10:25:33;4.30;91.60
7218;DHT22;3650;53.580;10.094;2022-11-20T10:28:15;4.30;91.50
7218;DHT22;3650;53.580;10.094;2022-11-20T10:30:44;4.30;91.60
7218;DHT22;3650;53.580;10.094;2022-11-20T10:33:16;4.30;91.80
7218;DHT22;3650;53.580;10.094;2022-11-20T10:35:52;4.40;92.10
7218;DHT22;3650;53.580;10.094;2022-11-20T10:38:21;4.40;91.70
7218;DHT22;3650;53.580;10.094;2022-11-20T10:40:54;4.40;91.60
7218;DHT22;3650;53.580;10.094;2022-11-20T10:43:43;4.40;91.40
7218;DHT22;3650;53.580;10.094;2022-11-20T10:46:15;4.40;91.20
7218;DHT22;3650;53.580;10.094;2022-11-20T10:48:43;4.40;91.00
7218;DHT22;3650;53.580;10.094;2022-11-20T10:51:21;4.50;90.70
7218;DHT22;3650;53.580;10.094;2022-11-20T10:54:04;4.40;90.60
7218;DHT22;3650;53.580;10.094;2022-11-20T10:56:39;4.40;90.60
7218;DHT22;3650;53.580;10.094;2022-11-20T11:02:20;4.50;90.70
7218;DHT22;3650;53.580;10.094;2022-11-20T11:04:49;4.50;89.80
7218;DHT22;3650;53.580;10.094;2022-11-20T11:07:20;4.60;89.80
7218;DHT22;3650;53.580;10.094;2022-11-20T11:09:49;4.60;88.50
7218;DHT22;3650;53.580;10.094;2022-11-20T11:12:23;4.50;87.70
7218;DHT22;3650;53.580;10.094;2022-11-20T11:14:52;4.60;87.80
7218;DHT22;3650;53.580;10.094;2022-11-20T11:17:25;4.60;88.40
7218;DHT22;3650;53.580;10.094;2022-11-20T11:20:06;4.60;87.60
7218;DHT22;3650;53.580;10.094;2022-11-20T11:22:43;4.60;87.30
7218;DHT22;3650;53.580;10.094;2022-11-20T11:25:20;4.60;87.60
7218;DHT22;3650;53.580;10.094;2022-11-20T11:27:50;4.60;88.20
7218;DHT22;3650;53.580;10.094;2022-11-20T11:30:18;4.60;88.20
7218;DHT22;3650;53.580;10.094;2022-11-20T11:32:45;4.60;88.10
7218;DHT22;3650;53.580;10.094;2022-11-20T11:35:21;4.60;88.50
7218;DHT22;3650;53.580;10.094;2022-11-20T11:37:48;4.60;87.40
7218;DHT22;3650;53.580;10.094;2022-11-20T11:40:17;4.60;87.00
7218;DHT22;3650;53.580;10.094;2022-11-20T11:42:53;4.60;86.40
7218;DHT22;3650;53.580;10.094;2022-11-20T11:45:21;4.60;86.50
7218;DHT22;3650;53.580;10.094;2022-11-20T11:47:48;4.60;86.60
7218;DHT22;3650;53.580;10.094;2022-11-20T11:50:19;4.50;86.80
7218;DHT22;3650;53.580;10.094;2022-11-20T11:52:56;4.50;86.20
7218;DHT22;3650;53.580;10.094;2022-11-20T11:55:29;4.50;86.10
7218;DHT22;3650;53.580;10.094;2022-11-20T12:00:53;4.50;85.60
7218;DHT22;3650;53.580;10.094;2022-11-20T12:03:25;4.50;85.40
7218;DHT22;3650;53.580;10.094;2022-11-20T12:05:57;4.50;85.50
7218;DHT22;3650;53.580;10.094;2022-11-20T12:08:28;4.50;85.40
7218;DHT22;3650;53.580;10.094;2022-11-20T12:11:00;4.50;85.00
7218;DHT22;3650;53.580;10.094;2022-11-20T12:13:42;4.50;85.20
7218;DHT22;3650;53.580;10.094;2022-11-20T12:16:14;4.50;85.20
7218;DHT22;3650;53.580;10.094;2022-11-20T12:18:43;4.60;85.60
7218;DHT22;3650;53.580;10.094;2022-11-20T12:21:19;4.60;85.30
7218;DHT22;3650;53.580;10.094;2022-11-20T12:24:10;4.60;84.80
7218;DHT22;3650;53.580;10.094;2022-11-20T12:26:52;4.60;83.80
7218;DHT22;3650;53.580;10.094;2022-11-20T12:29:31;4.60;83.40
7218;DHT22;3650;53.580;10.094;2022-11-20T12:32:34;4.70;83.40
7218;DHT22;3650;53.580;10.094;2022-11-20T12:35:11;4.60;83.80
7218;DHT22;3650;53.580;10.094;2022-11-20T12:37:47;4.60;84.70
7218;DHT22;3650;53.580;10.094;2022-11-20T12:40:27;4.70;85.40
7218;DHT22;3650;53.580;10.094;2022-11-20T12:43:01;4.70;85.60
7218;DHT22;3650;53.580;10.094;2022-11-20T12:46:22;4.70;85.00
7218;DHT22;3650;53.580;10.094;2022-11-20T12:49:15;4.70;84.50
7218;DHT22;3650;53.580;10.094;2022-11-20T12:52:16;4.70;84.20
7218;DHT22;3650;53.580;10.094;2022-11-20T12:55:07;4.70;85.00
7218;DHT22;3650;53.580;10.094;2022-11-20T12:57:42;4.70;83.40
7218;DHT22;3650;53.580;10.094;2022-11-20T13:00:25;4.70;83.10
7218;DHT22;3650;53.580;10.094;2022-11-20T13:05:59;4.80;81.30
7218;DHT22;3650;53.580;10.094;2022-11-20T13:08:33;4.80;81.20
7218;DHT22;3650;53.580;10.094;2022-11-20T13:11:07;4.80;81.10
7218;DHT22;3650;53.580;10.094;2022-11-20T13:13:45;4.80;81.40
7218;DHT22;3650;53.580;10.094;2022-11-20T13:16:22;4.80;81.80
7218;DHT22;3650;53.580;10.094;2022-11-20T13:18:51;4.80;81.80
7218;DHT22;3650;53.580;10.094;2022-11-20T13:21:20;4.80;82.30
7218;DHT22;3650;53.580;10.094;2022-11-20T13:24:04;4.80;83.00
7218;DHT22;3650;53.580;10.094;2022-11-20T13:26:31;4.80;82.90
7218;DHT22;3650;53.580;10.094;2022-11-20T13:29:08;4.80;83.50
7218;DHT22;3650;53.580;10.094;2022-11-20T13:31:36;4.80;84.30
7218;DHT22;3650;53.580;10.094;2022-11-20T13:34:06;4.90;84.40
7218;DHT22;3650;53.580;10.094;2022-11-20T13:36:33;4.90;84.00
7218;DHT22;3650;53.580;10.094;2022-11-20T13:39:02;4.90;83.70
7218;DHT22;3650;53.580;10.094;2022-11-20T13:41:31;4.90;83.30
7218;DHT22;3650;53.580;10.094;2022-11-20T13:44:06;4.90;83.30
7218;DHT22;3650;53.580;10.094;2022-11-20T13:46:40;5.00;82.80
7218;DHT22;3650;53.580;10.094;2022-11-20T13:49:16;4.90;82.50
7218;DHT22;3650;53.580;10.094;2022-11-20T13:51:48;5.00;82.80
7218;DHT22;3650;53.580;10.094;2022-11-20T13:54:43;5.00;82.30
7218;DHT22;3650;53.580;10.094;2022-11-20T13:57:44;5.00;82.80
7218;DHT22;3650;53.580;10.094;2022-11-20T14:00:16;5.00;82.80
7218;DHT22;3650;53.580;10.094;2022-11-20T14:02:43;5.00;81.90
7218;DHT22;3650;53.580;10.094;2022-11-20T14:05:19;5.00;81.90
7218;DHT22;3650;53.580;10.094;2022-11-20T14:07:49;5.00;81.90
7218;DHT22;3650;53.580;10.094;2022-11-20T14:10:22;5.10;81.00
7218;DHT22;3650;53.580;10.094;2022-11-20T14:12:49;5.10;80.70
7218;DHT22;3650;53.580;10.094;2022-11-20T14:15:25;5.10;80.30
7218;DHT22;3650;53.580;10.094;2022-11-20T14:17:52;5.00;80.50
7218;DHT22;3650;53.580;10.094;2022-11-20T14:20:23;5.10;80.80
7218;DHT22;3650;53.580;10.094;2022-11-20T14:22:52;5.10;80.50
7218;DHT22;3650;53.580;10.094;2022-11-20T14:25:21;5.10;81.50
7218;DHT22;3650;53.580;10.094;2022-11-20T14:27:53;5.00;80.30
7218;DHT22;3650;53.580;10.094;2022-11-20T14:30:22;5.00;80.60
7218;DHT22;3650;53.580;10.094;2022-11-20T14:32:50;5.00;80.20
7218;DHT22;3650;53.580;10.094;2022-11-20T14:35:24;5.00;80.30
7218;DHT22;3650;53.580;10.094;2022-11-20T14:37:52;5.00;81.50
7218;DHT22;3650;53.580;10.094;2022-11-20T14:40:28;5.00;79.70
7218;DHT22;3650;53.580;10.094;2022-11-20T14:42:56;5.10;79.20
7218;DHT22;3650;53.580;10.094;2022-11-20T14:45:23;5.00;79.00
7218;DHT22;3650;53.580;10.094;2022-11-20T14:47:52;5.00;79.30
7218;DHT22;3650;53.580;10.094;2022-11-20T14:50:24;5.10;78.20
7218;DHT22;3650;53.580;10.094;2022-11-20T14:52:55;5.10;77.50
7218;DHT22;3650;53.580;10.094;2022-11-20T14:55:26;5.10;76.70
7218;DHT22;3650;53.580;10.094;2022-11-20T14:57:57;5.10;76.90
7218;DHT22;3650;53.580;10.094;2022-11-20T15:00:25;5.00;77.00
7218;DHT22;3650;53.580;10.094;2022-11-20T15:02:52;5.00;77.10
7218;DHT22;3650;53.580;10.094;2022-11-20T15:05:20;5.00;77.50
7218;DHT22;3650;53.580;10.094;2022-11-20T15:07:52;5.00;77.50
7218;DHT22;3650;53.580;10.094;2022-11-20T15:10:30;4.90;77.90
7218;DHT22;3650;53.580;10.094;2022-11-20T15:13:01;4.90;77.50
7218;DHT22;3650;53.580;10.094;2022-11-20T15:15:33;4.90;77.60
7218;DHT22;3650;53.580;10.094;2022-11-20T15:18:02;4.80;78.30
7218;DHT22;3650;53.580;10.094;2022-11-20T15:20:31;4.80;78.80
7218;DHT22;3650;53.580;10.094;2022-11-20T15:23:00;4.80;78.90
7218;DHT22;3650;53.580;10.094;2022-11-20T15:25:26;4.80;79.00
7218;DHT22;3650;53.580;10.094;2022-11-20T15:27:56;4.80;79.10
7218;DHT22;3650;53.580;10.094;2022-11-20T15:30:23;4.80;79.40
7218;DHT22;3650;53.580;10.094;2022-11-20T15:32:51;4.80;78.90
7218;DHT22;3650;53.580;10.094;2022-11-20T15:35:18;4.70;78.60
7218;DHT22;3650;53.580;10.094;2022-11-20T15:37:45;4.70;79.00
7218;DHT22;3650;53.580;10.094;2022-11-20T15:40:14;4.70;79.00
7218;DHT22;3650;53.580;10.094;2022-11-20T15:42:41;4.70;79.70
7218;DHT22;3650;53.580;10.094;2022-11-20T15:45:29;4.70;79.80
7218;DHT22;3650;53.580;10.094;2022-11-20T15:47:57;4.70;80.10
7218;DHT22;3650;53.580;10.094;2022-11-20T15:50:29;4.70;80.40
7218;DHT22;3650;53.580;10.094;2022-11-20T15:52:56;4.80;80.30
7218;DHT22;3650;53.580;10.094;2022-11-20T15:55:24;4.80;80.10
7218;DHT22;3650;53.580;10.094;2022-11-20T15:57:51;4.80;79.60
7218;DHT22;3650;53.580;10.094;2022-11-20T16:00:21;4.80;79.10
7218;DHT22;3650;53.580;10.094;2022-11-20T16:02:49;4.80;79.00
7218;DHT22;3650;53.580;10.094;2022-11-20T16:05:26;4.80;78.50
7218;DHT22;3650;53.580;10.094;2022-11-20T16:07:53;4.70;78.80
7218;DHT22;3650;53.580;10.094;2022-11-20T16:10:20;4.80;79.00
7218;DHT22;3650;53.580;10.094;2022-11-20T16:12:48;4.80;79.00
7218;DHT22;3650;53.580;10.094;2022-11-20T16:15:32;4.80;78.60
7218;DHT22;3650;53.580;10.094;2022-11-20T16:18:14;4.80;78.90
7218;DHT22;3650;53.580;10.094;2022-11-20T16:20:42;4.70;78.90
7218;DHT22;3650;53.580;10.094;2022-11-20T16:23:09;4.70;79.30
7218;DHT22;3650;53.580;10.094;2022-11-20T16:25:36;4.80;80.00
7218;DHT22;3650;53.580;10.094;2022-11-20T16:28:04;4.80;80.90
7218;DHT22;3650;53.580;10.094;2022-11-20T16:30:31;4.80;81.70
7218;DHT22;3650;53.580;10.094;2022-11-20T16:32:59;4.80;81.80
7218;DHT22;3650;53.580;10.094;2022-11-20T16:35:26;4.80;81.80